sensor_id;sensor_type;location;lat;lon;timestamp;temperature;humidity
6948;DHT22;3513;47.664;9.162;2023-07-22T00:00:26;18.00;94.30
6948;DHT22;3513;47.664;9.162;2023-07-22T00:02:51;18.00;94.50
6948;DHT22;3513;47.664;9.162;2023-07-22T00:05:17;18.00;94.40
6948;DHT22;3513;47.664;9.162;2023-07-22T00:07:51;18.00;94.40
6948;DHT22;3513;47.664;9.162;2023-07-22T00:10:16;18.00;94.50
6948;DHT22;3513;47.664;9.162;2023-07-22T00:12:42;18.00;94.30
6948;DHT22;3513;47.664;9.162;2023-07-22T00:15:08;17.90;94.40
6948;DHT22;3513;47.664;9.162;2023-07-22T00:17:37;17.90;94.60
6948;DHT22;3513;47.664;9.162;2023-07-22T00:20:03;17.80;94.80
6948;DHT22;3513;47.664;9.162;2023-07-22T00:22:30;17.80;95.00
6948;DHT22;3513;47.664;9.162;2023-07-22T00:24:55;17.70;95.10
6948;DHT22;3513;47.664;9.162;2023-07-22T00:27:21;17.70;95.30
6948;DHT22;3513;47.664;9.162;2023-07-22T00:29:46;17.70;95.50
6948;DHT22;3513;47.664;9.162;2023-07-22T00:32:12;17.70;95.40
6948;DHT22;3513;47.664;9.162;2023-07-22T00:34:39;17.60;95.30
6948;DHT22;3513;47.664;9.162;2023-07-22T00:37:04;17.60;95.30
6948;DHT22;3513;47.664;9.162;2023-07-22T00:39:30;17.50;95.30
6948;DHT22;3513;47.664;9.162;2023-07-22T00:41:55;17.50;95.40
6948;DHT22;3513;47.664;9.162;2023-07-22T00:44:21;17.50;95.70
6948;DHT22;3513;47.664;9.162;2023-07-22T00:46:46;17.50;95.80
6948;DHT22;3513;47.664;9.162;2023-07-22T00:49:14;17.50;96.00
6948;DHT22;3513;47.664;9.162;2023-07-22T00:51:41;17.50;96.50
6948;DHT22;3513;47.664;9.162;2023-07-22T00:54:06;17.60;96.00
6948;DHT22;3513;47.664;9.162;2023-07-22T00:56:36;17.50;96.40
6948;DHT22;3513;47.664;9.162;2023-07-22T00:59:02;17.30;96.80
6948;DHT22;3513;47.664;9.162;2023-07-22T01:01:27;17.20;97.30
6948;DHT22;3513;47.664;9.162;2023-07-22T01:03:53;17.10;97.70
6948;DHT22;3513;47.664;9.162;2023-07-22T01:06:20;17.00;97.90
6948;DHT22;3513;47.664;9.162;2023-07-22T01:08:45;16.90;98.20
6948;DHT22;3513;47.664;9.162;2023-07-22T01:11:12;16.90;98.60
6948;DHT22;3513;47.664;9.162;2023-07-22T01:13:38;16.80;99.20
6948;DHT22;3513;47.664;9.162;2023-07-22T01:16:05;16.80;99.20
6948;DHT22;3513;47.664;9.162;2023-07-22T01:18:33;16.80;99.20
6948;DHT22;3513;47.664;9.162;2023-07-22T01:20:58;16.70;99.40
6948;DHT22;3513;47.664;9.162;2023-07-22T01:23:24;16.70;99.70
6948;DHT22;3513;47.664;9.162;2023-07-22T01:25:50;16.60;99.80
6948;DHT22;3513;47.664;9.162;2023-07-22T01:28:16;16.60;99.90
6948;DHT22;3513;47.664;9.162;2023-07-22T01:30:42;16.50;99.90
6948;DHT22;3513;47.664;9.162;2023-07-22T01:33:07;16.40;99.90
6948;DHT22;3513;47.664;9.162;2023-07-22T01:35:33;16.30;99.90
6948;DHT22;3513;47.664;9.162;2023-07-22T01:37:59;16.20;99.90
6948;DHT22;3513;47.664;9.162;2023-07-22T01:40:25;16.20;99.90
6948;DHT22;3513;47.664;9.162;2023-07-22T01:42:51;16.10;99.90
6948;DHT22;3513;47.664;9.162;2023-07-22T01:45:16;16.10;99.90
6948;DHT22;3513;47.664;9.162;2023-07-22T01:47:42;16.10;99.90
6948;DHT22;3513;47.664;9.162;2023-07-22T01:50:08;16.10;99.90
6948;DHT22;3513;47.664;9.162;2023-07-22T01:52:35;16.10;99.90
6948;DHT22;3513;47.664;9.162;2023-07-22T01:55:22;16.00;99.90
6948;DHT22;3513;47.664;9.162;2023-07-22T01:57:48;15.90;99.90
6948;DHT22;3513;47.664;9.162;2023-07-22T02:00:14;15.80;99.90
6948;DHT22;3513;47.664;9.162;2023-07-22T02:02:43;15.70;99.90
6948;DHT22;3513;47.664;9.162;2023-07-22T02:05:09;15.60;99.90
6948;DHT22;3513;47.664;9.162;2023-07-22T02:07:35;15.60;99.90
6948;DHT22;3513;47.664;9.162;2023-07-22T02:10:01;15.60;99.90
6948;DHT22;3513;47.664;9.162;2023-07-22T02:12:27;15.60;99.90
6948;DHT22;3513;47.664;9.162;2023-07-22T02:14:52;15.60;99.90
6948;DHT22;3513;47.664;9.162;2023-07-22T02:17:18;15.50;99.90
6948;DHT22;3513;47.664;9.162;2023-07-22T02:19:43;15.50;99.90
6948;DHT22;3513;47.664;9.162;2023-07-22T02:22:09;15.40;99.90
6948;DHT22;3513;47.664;9.162;2023-07-22T02:24:34;15.30;99.90
6948;DHT22;3513;47.664;9.162;2023-07-22T02:27:00;15.30;99.90
6948;DHT22;3513;47.664;9.162;2023-07-22T02:29:26;15.40;99.90
6948;DHT22;3513;47.664;9.162;2023-07-22T02:31:51;15.30;99.90
6948;DHT22;3513;47.664;9.162;2023-07-22T02:34:17;15.30;99.90
6948;DHT22;3513;47.664;9.162;2023-07-22T02:36:42;15.20;99.90
6948;DHT22;3513;47.664;9.162;2023-07-22T02:39:08;15.10;99.90
6948;DHT22;3513;47.664;9.162;2023-07-22T02:41:36;15.00;99.90
6948;DHT22;3513;47.664;9.162;2023-07-22T02:44:02;15.00;99.90
6948;DHT22;3513;47.664;9.162;2023-07-22T02:46:29;14.90;99.90
6948;DHT22;3513;47.664;9.162;2023-07-22T02:48:54;14.90;99.90
6948;DHT22;3513;47.664;9.162;2023-07-22T02:51:20;14.80;99.90
6948;DHT22;3513;47.664;9.162;2023-07-22T02:53:46;14.90;99.90
6948;DHT22;3513;47.664;9.162;2023-07-22T02:56:12;14.90;99.90
6948;DHT22;3513;47.664;9.162;2023-07-22T02:58:38;14.90;99.90
6948;DHT22;3513;47.664;9.162;2023-07-22T03:01:04;14.90;99.90
6948;DHT22;3513;47.664;9.162;2023-07-22T03:03:34;14.90;99.90
6948;DHT22;3513;47.664;9.162;2023-07-22T03:06:00;14.90;99.90
6948;DHT22;3513;47.664;9.162;2023-07-22T03:08:26;14.90;99.90
6948;DHT22;3513;47.664;9.162;2023-07-22T03:10:51;14.80;99.90
6948;DHT22;3513;47.664;9.162;2023-07-22T03:13:17;14.80;99.90
6948;DHT22;3513;47.664;9.162;2023-07-22T03:15:43;14.90;99.90
6948;DHT22;3513;47.664;9.162;2023-07-22T03:18:09;14.90;99.90
6948;DHT22;3513;47.664;9.162;2023-07-22T03:20:36;14.90;99.90
6948;DHT22;3513;47.664;9.162;2023-07-22T03:23:02;14.90;99.90
6948;DHT22;3513;47.664;9.162;2023-07-22T03:25:28;15.00;99.90
6948;DHT22;3513;47.664;9.162;2023-07-22T03:27:54;15.00;99.90
6948;DHT22;3513;47.664;9.162;2023-07-22T03:30:22;15.00;99.90
6948;DHT22;3513;47.664;9.162;2023-07-22T03:32:48;15.00;99.90
6948;DHT22;3513;47.664;9.162;2023-07-22T03:35:16;15.00;99.90
6948;DHT22;3513;47.664;9.162;2023-07-22T03:37:42;15.00;99.90
6948;DHT22;3513;47.664;9.162;2023-07-22T03:40:09;15.00;99.90
6948;DHT22;3513;47.664;9.162;2023-07-22T03:42:53;14.90;99.90
6948;DHT22;3513;47.664;9.162;2023-07-22T03:45:20;14.80;99.90
6948;DHT22;3513;47.664;9.162;2023-07-22T03:47:50;14.80;99.90
6948;DHT22;3513;47.664;9.162;2023-07-22T03:50:15;14.80;99.90
6948;DHT22;3513;47.664;9.162;2023-07-22T03:52:41;14.70;99.90
6948;DHT22;3513;47.664;9.162;2023-07-22T03:55:07;14.70;99.90
6948;DHT22;3513;47.664;9.162;2023-07-22T03:57:33;14.70;99.90
6948;DHT22;3513;47.664;9.162;2023-07-22T03:59:58;14.70;99.90
6948;DHT22;3513;47.664;9.162;2023-07-22T04:02:24;14.60;99.90
6948;DHT22;3513;47.664;9.162;2023-07-22T04:04:51;14.60;99.90
6948;DHT22;3513;47.664;9.162;2023-07-22T04:07:17;14.60;99.90
6948;DHT22;3513;47.664;9.162;2023-07-22T04:09:44;14.60;99.90
6948;DHT22;3513;47.664;9.162;2023-07-22T04:12:10;14.60;99.90
6948;DHT22;3513;47.664;9.162;2023-07-22T04:14:36;14.70;99.90
6948;DHT22;3513;47.664;9.162;2023-07-22T04:17:02;14.70;99.90
6948;DHT22;3513;47.664;9.162;2023-07-22T04:19:29;14.70;99.90
6948;DHT22;3513;47.664;9.162;2023-07-22T04:21:55;14.70;99.90
6948;DHT22;3513;47.664;9.162;2023-07-22T04:24:20;14.80;99.90
6948;DHT22;3513;47.664;9.162;2023-07-22T04:26:46;14.80;99.90
6948;DHT22;3513;47.664;9.162;2023-07-22T04:29:11;14.90;99.90
6948;DHT22;3513;47.664;9.162;2023-07-22T04:31:38;14.90;99.90
6948;DHT22;3513;47.664;9.162;2023-07-22T04:34:04;14.90;99.90
6948;DHT22;3513;47.664;9.162;2023-07-22T04:36:31;14.90;99.90
6948;DHT22;3513;47.664;9.162;2023-07-22T04:38:56;15.00;99.90
6948;DHT22;3513;47.664;9.162;2023-07-22T04:41:22;14.90;99.90
6948;DHT22;3513;47.664;9.162;2023-07-22T04:43:47;14.90;99.90
6948;DHT22;3513;47.664;9.162;2023-07-22T04:46:13;14.90;99.90
6948;DHT22;3513;47.664;9.162;2023-07-22T04:48:39;14.80;99.90
6948;DHT22;3513;47.664;9.162;2023-07-22T04:51:04;14.90;99.90
6948;DHT22;3513;47.664;9.162;2023-07-22T04:53:30;14.80;99.90
6948;DHT22;3513;47.664;9.162;2023-07-22T04:55:55;14.90;99.90
6948;DHT22;3513;47.664;9.162;2023-07-22T04:58:21;14.90;99.90
6948;DHT22;3513;47.664;9.162;2023-07-22T05:00:47;14.90;99.90
6948;DHT22;3513;47.664;9.162;2023-07-22T05:03:13;14.90;99.90
6948;DHT22;3513;47.664;9.162;2023-07-22T05:05:39;14.90;99.90
6948;DHT22;3513;47.664;9.162;2023-07-22T05:08:05;15.00;99.90
6948;DHT22;3513;47.664;9.162;2023-07-22T05:10:32;15.00;99.90
6948;DHT22;3513;47.664;9.162;2023-07-22T05:12:58;15.20;99.90
6948;DHT22;3513;47.664;9.162;2023-07-22T05:15:24;15.20;99.90
6948;DHT22;3513;47.664;9.162;2023-07-22T05:17:49;15.30;99.90
6948;DHT22;3513;47.664;9.162;2023-07-22T05:20:15;15.30;99.90
6948;DHT22;3513;47.664;9.162;2023-07-22T05:22:41;15.40;99.90
6948;DHT22;3513;47.664;9.162;2023-07-22T05:25:07;15.50;99.90
6948;DHT22;3513;47.664;9.162;2023-07-22T05:27:33;15.50;99.90
6948;DHT22;3513;47.664;9.162;2023-07-22T05:29:59;15.50;99.90
6948;DHT22;3513;47.664;9.162;2023-07-22T05:32:25;15.50;99.90
6948;DHT22;3513;47.664;9.162;2023-07-22T05:34:50;15.60;99.90
6948;DHT22;3513;47.664;9.162;2023-07-22T05:37:16;15.70;99.90
6948;DHT22;3513;47.664;9.162;2023-07-22T05:39:42;15.80;99.90
6948;DHT22;3513;47.664;9.162;2023-07-22T05:42:07;15.90;99.90
6948;DHT22;3513;47.664;9.162;2023-07-22T05:44:33;16.00;99.90
6948;DHT22;3513;47.664;9.162;2023-07-22T05:46:58;16.00;99.90
6948;DHT22;3513;47.664;9.162;2023-07-22T05:49:24;16.20;99.90
6948;DHT22;3513;47.664;9.162;2023-07-22T05:51:50;16.30;99.90
6948;DHT22;3513;47.664;9.162;2023-07-22T05:54:15;16.40;99.90
6948;DHT22;3513;47.664;9.162;2023-07-22T05:56:41;16.40;99.90
6948;DHT22;3513;47.664;9.162;2023-07-22T05:59:07;16.50;99.90
6948;DHT22;3513;47.664;9.162;2023-07-22T06:01:32;16.60;99.90
6948;DHT22;3513;47.664;9.162;2023-07-22T06:03:58;16.70;99.90
6948;DHT22;3513;47.664;9.162;2023-07-22T06:06:24;16.60;99.90
6948;DHT22;3513;47.664;9.162;2023-07-22T06:08:49;16.70;99.90
6948;DHT22;3513;47.664;9.162;2023-07-22T06:11:15;16.60;99.90
6948;DHT22;3513;47.664;9.162;2023-07-22T06:13:40;16.70;99.90
6948;DHT22;3513;47.664;9.162;2023-07-22T06:16:06;16.70;99.90
6948;DHT22;3513;47.664;9.162;2023-07-22T06:18:32;16.80;99.90
6948;DHT22;3513;47.664;9.162;2023-07-22T06:20:57;16.80;99.90
6948;DHT22;3513;47.664;9.162;2023-07-22T06:23:23;16.80;99.90
6948;DHT22;3513;47.664;9.162;2023-07-22T06:25:48;16.90;99.90
6948;DHT22;3513;47.664;9.162;2023-07-22T06:28:14;16.90;99.90
6948;DHT22;3513;47.664;9.162;2023-07-22T06:30:39;17.00;99.90
6948;DHT22;3513;47.664;9.162;2023-07-22T06:33:05;17.00;99.90
6948;DHT22;3513;47.664;9.162;2023-07-22T06:35:31;17.10;99.90
6948;DHT22;3513;47.664;9.162;2023-07-22T06:37:56;17.20;99.90
6948;DHT22;3513;47.664;9.162;2023-07-22T06:40:22;17.30;99.90
6948;DHT22;3513;47.664;9.162;2023-07-22T06:42:47;17.40;99.90
6948;DHT22;3513;47.664;9.162;2023-07-22T06:45:13;17.60;99.90
6948;DHT22;3513;47.664;9.162;2023-07-22T06:47:38;17.70;99.90
6948;DHT22;3513;47.664;9.162;2023-07-22T06:50:04;17.80;99.90
6948;DHT22;3513;47.664;9.162;2023-07-22T06:52:33;18.00;99.90
6948;DHT22;3513;47.664;9.162;2023-07-22T06:54:59;18.10;99.90
6948;DHT22;3513;47.664;9.162;2023-07-22T06:57:24;18.20;99.90
6948;DHT22;3513;47.664;9.162;2023-07-22T06:59:53;18.30;99.90
6948;DHT22;3513;47.664;9.162;2023-07-22T07:02:19;18.40;99.90
6948;DHT22;3513;47.664;9.162;2023-07-22T07:04:45;18.50;99.90
6948;DHT22;3513;47.664;9.162;2023-07-22T07:07:11;18.40;99.90
6948;DHT22;3513;47.664;9.162;2023-07-22T07:09:38;18.50;99.90
6948;DHT22;3513;47.664;9.162;2023-07-22T07:12:04;18.60;99.90
6948;DHT22;3513;47.664;9.162;2023-07-22T07:14:30;18.70;99.90
6948;DHT22;3513;47.664;9.162;2023-07-22T07:16:55;18.90;99.90
6948;DHT22;3513;47.664;9.162;2023-07-22T07:19:21;19.10;99.90
6948;DHT22;3513;47.664;9.162;2023-07-22T07:21:46;19.20;99.90
6948;DHT22;3513;47.664;9.162;2023-07-22T07:24:12;19.40;99.40
6948;DHT22;3513;47.664;9.162;2023-07-22T07:26:38;19.50;98.40
6948;DHT22;3513;47.664;9.162;2023-07-22T07:29:03;19.60;98.30
6948;DHT22;3513;47.664;9.162;2023-07-22T07:31:29;19.70;98.00
6948;DHT22;3513;47.664;9.162;2023-07-22T07:33:55;19.80;98.00
6948;DHT22;3513;47.664;9.162;2023-07-22T07:36:21;20.00;97.80
6948;DHT22;3513;47.664;9.162;2023-07-22T07:38:46;20.20;97.30
6948;DHT22;3513;47.664;9.162;2023-07-22T07:41:12;20.30;96.70
6948;DHT22;3513;47.664;9.162;2023-07-22T07:43:39;20.40;96.50
6948;DHT22;3513;47.664;9.162;2023-07-22T07:46:21;20.60;95.80
6948;DHT22;3513;47.664;9.162;2023-07-22T07:48:48;20.70;95.60
6948;DHT22;3513;47.664;9.162;2023-07-22T07:51:15;20.90;95.30
6948;DHT22;3513;47.664;9.162;2023-07-22T07:53:42;21.10;94.80
6948;DHT22;3513;47.664;9.162;2023-07-22T07:56:10;21.20;94.30
6948;DHT22;3513;47.664;9.162;2023-07-22T07:58:36;21.40;93.70
6948;DHT22;3513;47.664;9.162;2023-07-22T08:01:03;21.60;93.20
6948;DHT22;3513;47.664;9.162;2023-07-22T08:03:29;21.80;92.40
6948;DHT22;3513;47.664;9.162;2023-07-22T08:05:55;21.90;91.60
6948;DHT22;3513;47.664;9.162;2023-07-22T08:08:21;22.10;91.30
6948;DHT22;3513;47.664;9.162;2023-07-22T08:10:47;22.20;90.90
6948;DHT22;3513;47.664;9.162;2023-07-22T08:13:13;22.30;90.80
6948;DHT22;3513;47.664;9.162;2023-07-22T08:15:39;22.40;90.00
6948;DHT22;3513;47.664;9.162;2023-07-22T08:18:07;22.50;88.50
6948;DHT22;3513;47.664;9.162;2023-07-22T08:20:32;22.40;88.00
6948;DHT22;3513;47.664;9.162;2023-07-22T08:22:58;22.40;89.00
6948;DHT22;3513;47.664;9.162;2023-07-22T08:25:24;22.30;89.40
6948;DHT22;3513;47.664;9.162;2023-07-22T08:27:49;22.30;89.50
6948;DHT22;3513;47.664;9.162;2023-07-22T08:30:15;22.20;89.20
6948;DHT22;3513;47.664;9.162;2023-07-22T08:32:40;22.20;88.50
6948;DHT22;3513;47.664;9.162;2023-07-22T08:35:06;22.20;88.90
6948;DHT22;3513;47.664;9.162;2023-07-22T08:37:32;22.30;87.50
6948;DHT22;3513;47.664;9.162;2023-07-22T08:39:58;22.40;87.10
6948;DHT22;3513;47.664;9.162;2023-07-22T08:42:24;22.60;83.90
6948;DHT22;3513;47.664;9.162;2023-07-22T08:44:56;22.90;79.80
6948;DHT22;3513;47.664;9.162;2023-07-22T08:47:22;23.00;70.10
6948;DHT22;3513;47.664;9.162;2023-07-22T08:49:52;22.90;70.40
6948;DHT22;3513;47.664;9.162;2023-07-22T08:52:19;22.90;67.60
6948;DHT22;3513;47.664;9.162;2023-07-22T08:54:45;22.70;65.30
6948;DHT22;3513;47.664;9.162;2023-07-22T08:57:12;22.70;63.00
6948;DHT22;3513;47.664;9.162;2023-07-22T08:59:38;22.80;64.50
6948;DHT22;3513;47.664;9.162;2023-07-22T09:02:04;23.10;62.20
6948;DHT22;3513;47.664;9.162;2023-07-22T09:04:30;23.20;59.90
6948;DHT22;3513;47.664;9.162;2023-07-22T09:06:57;23.20;60.30
6948;DHT22;3513;47.664;9.162;2023-07-22T09:09:24;23.20;60.30
6948;DHT22;3513;47.664;9.162;2023-07-22T09:11:51;23.40;62.10
6948;DHT22;3513;47.664;9.162;2023-07-22T09:14:19;23.30;58.10
6948;DHT22;3513;47.664;9.162;2023-07-22T09:16:45;23.20;58.00
6948;DHT22;3513;47.664;9.162;2023-07-22T09:19:12;23.30;62.40
6948;DHT22;3513;47.664;9.162;2023-07-22T09:21:38;23.20;64.70
6948;DHT22;3513;47.664;9.162;2023-07-22T09:24:24;23.10;67.60
6948;DHT22;3513;47.664;9.162;2023-07-22T09:26:51;23.10;68.40
6948;DHT22;3513;47.664;9.162;2023-07-22T09:29:16;23.10;68.00
6948;DHT22;3513;47.664;9.162;2023-07-22T09:31:54;22.90;68.20
6948;DHT22;3513;47.664;9.162;2023-07-22T09:34:20;22.80;67.50
6948;DHT22;3513;47.664;9.162;2023-07-22T09:39:16;22.60;67.70
6948;DHT22;3513;47.664;9.162;2023-07-22T09:41:42;22.60;69.00
6948;DHT22;3513;47.664;9.162;2023-07-22T09:44:09;22.60;65.80
6948;DHT22;3513;47.664;9.162;2023-07-22T09:46:36;22.60;68.10
6948;DHT22;3513;47.664;9.162;2023-07-22T09:49:07;22.60;67.30
6948;DHT22;3513;47.664;9.162;2023-07-22T09:51:35;22.60;66.10
6948;DHT22;3513;47.664;9.162;2023-07-22T09:54:02;22.80;65.40
6948;DHT22;3513;47.664;9.162;2023-07-22T09:56:28;22.80;65.70
6948;DHT22;3513;47.664;9.162;2023-07-22T09:58:54;22.80;64.90
6948;DHT22;3513;47.664;9.162;2023-07-22T10:01:23;22.90;64.30
6948;DHT22;3513;47.664;9.162;2023-07-22T10:03:55;22.80;64.10
6948;DHT22;3513;47.664;9.162;2023-07-22T10:06:26;22.70;64.40
6948;DHT22;3513;47.664;9.162;2023-07-22T10:08:53;22.60;62.50
6948;DHT22;3513;47.664;9.162;2023-07-22T10:11:22;22.50;64.40
6948;DHT22;3513;47.664;9.162;2023-07-22T10:13:48;22.30;65.30
6948;DHT22;3513;47.664;9.162;2023-07-22T10:16:15;22.10;65.50
6948;DHT22;3513;47.664;9.162;2023-07-22T10:18:42;22.10;66.40
6948;DHT22;3513;47.664;9.162;2023-07-22T10:21:08;22.10;65.20
6948;DHT22;3513;47.664;9.162;2023-07-22T10:23:35;22.10;66.90
6948;DHT22;3513;47.664;9.162;2023-07-22T10:26:01;22.20;65.00
6948;DHT22;3513;47.664;9.162;2023-07-22T10:28:29;22.30;66.10
6948;DHT22;3513;47.664;9.162;2023-07-22T10:30:55;22.40;66.00
6948;DHT22;3513;47.664;9.162;2023-07-22T10:33:22;22.50;65.60
6948;DHT22;3513;47.664;9.162;2023-07-22T10:36:06;22.50;65.70
6948;DHT22;3513;47.664;9.162;2023-07-22T10:38:33;22.70;67.10
6948;DHT22;3513;47.664;9.162;2023-07-22T10:40:59;22.90;67.30
6948;DHT22;3513;47.664;9.162;2023-07-22T10:43:32;23.00;62.80
6948;DHT22;3513;47.664;9.162;2023-07-22T10:46:14;23.20;63.50
6948;DHT22;3513;47.664;9.162;2023-07-22T10:48:40;23.50;63.20
6948;DHT22;3513;47.664;9.162;2023-07-22T10:51:12;23.70;60.10
6948;DHT22;3513;47.664;9.162;2023-07-22T10:53:44;23.50;58.20
6948;DHT22;3513;47.664;9.162;2023-07-22T11:01:32;24.30;58.80
6948;DHT22;3513;47.664;9.162;2023-07-22T11:06:34;25.10;55.70
6948;DHT22;3513;47.664;9.162;2023-07-22T11:09:00;25.20;52.70
6948;DHT22;3513;47.664;9.162;2023-07-22T11:11:39;25.20;52.70
6948;DHT22;3513;47.664;9.162;2023-07-22T11:14:21;25.10;54.50
6948;DHT22;3513;47.664;9.162;2023-07-22T11:16:47;24.90;54.50
6948;DHT22;3513;47.664;9.162;2023-07-22T11:19:17;24.90;54.40
6948;DHT22;3513;47.664;9.162;2023-07-22T11:21:44;24.90;53.50
6948;DHT22;3513;47.664;9.162;2023-07-22T11:24:10;24.80;52.80
6948;DHT22;3513;47.664;9.162;2023-07-22T11:26:37;24.90;53.80
6948;DHT22;3513;47.664;9.162;2023-07-22T11:29:04;25.00;53.00
6948;DHT22;3513;47.664;9.162;2023-07-22T11:31:34;25.10;53.10
6948;DHT22;3513;47.664;9.162;2023-07-22T11:34:04;25.10;53.20
6948;DHT22;3513;47.664;9.162;2023-07-22T11:36:30;25.10;54.80
6948;DHT22;3513;47.664;9.162;2023-07-22T11:39:07;25.10;55.40
6948;DHT22;3513;47.664;9.162;2023-07-22T11:41:34;25.00;53.70
6948;DHT22;3513;47.664;9.162;2023-07-22T11:44:02;24.80;54.00
6948;DHT22;3513;47.664;9.162;2023-07-22T11:46:28;24.70;54.50
6948;DHT22;3513;47.664;9.162;2023-07-22T11:48:55;24.70;54.10
6948;DHT22;3513;47.664;9.162;2023-07-22T11:51:23;24.70;53.80
6948;DHT22;3513;47.664;9.162;2023-07-22T11:53:50;24.80;53.60
6948;DHT22;3513;47.664;9.162;2023-07-22T11:56:27;24.60;54.40
6948;DHT22;3513;47.664;9.162;2023-07-22T11:58:56;24.50;55.00
6948;DHT22;3513;47.664;9.162;2023-07-22T12:01:23;24.40;54.50
6948;DHT22;3513;47.664;9.162;2023-07-22T12:03:54;24.30;55.30
6948;DHT22;3513;47.664;9.162;2023-07-22T12:06:20;24.50;55.10
6948;DHT22;3513;47.664;9.162;2023-07-22T12:08:52;24.70;55.70
6948;DHT22;3513;47.664;9.162;2023-07-22T12:13:43;25.00;54.70
6948;DHT22;3513;47.664;9.162;2023-07-22T12:16:12;25.20;55.30
6948;DHT22;3513;47.664;9.162;2023-07-22T12:18:45;25.20;53.30
6948;DHT22;3513;47.664;9.162;2023-07-22T12:21:12;25.10;53.70
6948;DHT22;3513;47.664;9.162;2023-07-22T12:23:38;25.00;52.40
6948;DHT22;3513;47.664;9.162;2023-07-22T12:26:04;25.10;52.80
6948;DHT22;3513;47.664;9.162;2023-07-22T12:28:30;25.20;52.10
6948;DHT22;3513;47.664;9.162;2023-07-22T12:30:56;25.30;52.90
6948;DHT22;3513;47.664;9.162;2023-07-22T12:33:25;25.50;52.20
6948;DHT22;3513;47.664;9.162;2023-07-22T12:35:55;25.90;53.80
6948;DHT22;3513;47.664;9.162;2023-07-22T12:38:21;26.40;52.30
6948;DHT22;3513;47.664;9.162;2023-07-22T12:40:46;26.80;51.30
6948;DHT22;3513;47.664;9.162;2023-07-22T12:43:12;26.90;49.80
6948;DHT22;3513;47.664;9.162;2023-07-22T12:45:38;26.80;49.30
6948;DHT22;3513;47.664;9.162;2023-07-22T12:48:03;26.60;48.00
6948;DHT22;3513;47.664;9.162;2023-07-22T12:50:31;26.70;48.90
6948;DHT22;3513;47.664;9.162;2023-07-22T12:52:57;26.70;49.30
6948;DHT22;3513;47.664;9.162;2023-07-22T12:55:23;26.60;48.70
6948;DHT22;3513;47.664;9.162;2023-07-22T12:57:48;26.80;49.60
6948;DHT22;3513;47.664;9.162;2023-07-22T13:00:14;26.90;47.70
6948;DHT22;3513;47.664;9.162;2023-07-22T13:02:40;26.90;48.90
6948;DHT22;3513;47.664;9.162;2023-07-22T13:05:06;27.00;47.00
6948;DHT22;3513;47.664;9.162;2023-07-22T13:07:32;26.90;47.90
6948;DHT22;3513;47.664;9.162;2023-07-22T13:09:57;27.00;46.60
6948;DHT22;3513;47.664;9.162;2023-07-22T13:12:25;27.10;48.00
6948;DHT22;3513;47.664;9.162;2023-07-22T13:14:51;27.00;46.50
6948;DHT22;3513;47.664;9.162;2023-07-22T13:17:17;27.20;46.90
6948;DHT22;3513;47.664;9.162;2023-07-22T13:19:42;27.50;46.30
6948;DHT22;3513;47.664;9.162;2023-07-22T13:22:08;27.60;43.60
6948;DHT22;3513;47.664;9.162;2023-07-22T13:24:33;27.50;43.80
6948;DHT22;3513;47.664;9.162;2023-07-22T13:26:59;27.50;44.30
6948;DHT22;3513;47.664;9.162;2023-07-22T13:29:24;27.40;43.70
6948;DHT22;3513;47.664;9.162;2023-07-22T13:31:50;27.30;44.60
6948;DHT22;3513;47.664;9.162;2023-07-22T13:34:15;27.20;44.90
6948;DHT22;3513;47.664;9.162;2023-07-22T13:36:41;26.90;44.10
6948;DHT22;3513;47.664;9.162;2023-07-22T13:39:06;26.80;44.50
6948;DHT22;3513;47.664;9.162;2023-07-22T13:41:32;26.80;44.40
6948;DHT22;3513;47.664;9.162;2023-07-22T13:43:58;27.00;45.10
6948;DHT22;3513;47.664;9.162;2023-07-22T13:46:23;27.50;44.50
6948;DHT22;3513;47.664;9.162;2023-07-22T13:48:49;27.80;43.10
6948;DHT22;3513;47.664;9.162;2023-07-22T13:51:14;27.80;44.30
6948;DHT22;3513;47.664;9.162;2023-07-22T13:53:40;27.90;42.70
6948;DHT22;3513;47.664;9.162;2023-07-22T13:56:05;27.60;41.20
6948;DHT22;3513;47.664;9.162;2023-07-22T13:58:31;27.50;42.00
6948;DHT22;3513;47.664;9.162;2023-07-22T14:00:57;27.50;41.60
6948;DHT22;3513;47.664;9.162;2023-07-22T14:03:22;27.70;41.60
6948;DHT22;3513;47.664;9.162;2023-07-22T14:05:48;28.20;41.20
6948;DHT22;3513;47.664;9.162;2023-07-22T14:08:13;28.60;38.40
6948;DHT22;3513;47.664;9.162;2023-07-22T14:10:39;28.70;38.80
6948;DHT22;3513;47.664;9.162;2023-07-22T14:13:04;28.60;38.50
6948;DHT22;3513;47.664;9.162;2023-07-22T14:15:30;28.60;38.50
6948;DHT22;3513;47.664;9.162;2023-07-22T14:17:56;29.10;39.40
6948;DHT22;3513;47.664;9.162;2023-07-22T14:20:22;29.40;35.70
6948;DHT22;3513;47.664;9.162;2023-07-22T14:22:47;29.40;36.40
6948;DHT22;3513;47.664;9.162;2023-07-22T14:25:15;29.50;37.70
6948;DHT22;3513;47.664;9.162;2023-07-22T14:27:41;29.40;36.10
6948;DHT22;3513;47.664;9.162;2023-07-22T14:30:08;29.20;37.60
6948;DHT22;3513;47.664;9.162;2023-07-22T14:32:34;29.20;36.50
6948;DHT22;3513;47.664;9.162;2023-07-22T14:34:59;29.20;35.90
6948;DHT22;3513;47.664;9.162;2023-07-22T14:37:25;29.30;35.50
6948;DHT22;3513;47.664;9.162;2023-07-22T14:39:50;29.20;36.00
6948;DHT22;3513;47.664;9.162;2023-07-22T14:42:16;29.10;36.30
6948;DHT22;3513;47.664;9.162;2023-07-22T14:44:41;29.40;36.90
6948;DHT22;3513;47.664;9.162;2023-07-22T14:47:07;29.50;36.00
6948;DHT22;3513;47.664;9.162;2023-07-22T14:49:33;29.80;35.70
6948;DHT22;3513;47.664;9.162;2023-07-22T14:51:58;29.90;36.40
6948;DHT22;3513;47.664;9.162;2023-07-22T14:54:24;30.20;34.30
6948;DHT22;3513;47.664;9.162;2023-07-22T14:56:49;30.30;34.30
6948;DHT22;3513;47.664;9.162;2023-07-22T14:59:15;30.30;35.10
6948;DHT22;3513;47.664;9.162;2023-07-22T15:01:41;30.70;36.50
6948;DHT22;3513;47.664;9.162;2023-07-22T15:04:07;31.30;33.70
6948;DHT22;3513;47.664;9.162;2023-07-22T15:06:33;30.80;32.40
6948;DHT22;3513;47.664;9.162;2023-07-22T15:08:59;30.20;32.90
6948;DHT22;3513;47.664;9.162;2023-07-22T15:11:25;29.50;34.90
6948;DHT22;3513;47.664;9.162;2023-07-22T15:13:51;29.20;34.60
6948;DHT22;3513;47.664;9.162;2023-07-22T15:16:16;29.40;35.50
6948;DHT22;3513;47.664;9.162;2023-07-22T15:18:42;29.50;34.60
6948;DHT22;3513;47.664;9.162;2023-07-22T15:21:08;29.50;35.20
6948;DHT22;3513;47.664;9.162;2023-07-22T15:23:33;29.60;34.10
6948;DHT22;3513;47.664;9.162;2023-07-22T15:25:59;30.10;34.20
6948;DHT22;3513;47.664;9.162;2023-07-22T15:28:25;30.20;33.70
6948;DHT22;3513;47.664;9.162;2023-07-22T15:30:53;30.50;32.80
6948;DHT22;3513;47.664;9.162;2023-07-22T15:33:18;31.00;33.50
6948;DHT22;3513;47.664;9.162;2023-07-22T15:35:44;31.60;33.10
6948;DHT22;3513;47.664;9.162;2023-07-22T15:38:09;31.70;29.90
6948;DHT22;3513;47.664;9.162;2023-07-22T15:40:35;31.30;31.10
6948;DHT22;3513;47.664;9.162;2023-07-22T15:43:01;31.40;30.60
6948;DHT22;3513;47.664;9.162;2023-07-22T15:45:26;31.20;29.80
6948;DHT22;3513;47.664;9.162;2023-07-22T15:47:52;31.30;30.50
6948;DHT22;3513;47.664;9.162;2023-07-22T15:50:18;31.60;30.10
6948;DHT22;3513;47.664;9.162;2023-07-22T15:52:44;31.60;30.00
6948;DHT22;3513;47.664;9.162;2023-07-22T15:55:09;31.70;29.90
6948;DHT22;3513;47.664;9.162;2023-07-22T15:57:35;32.00;30.00
6948;DHT22;3513;47.664;9.162;2023-07-22T16:00:01;32.60;28.90
6948;DHT22;3513;47.664;9.162;2023-07-22T16:02:27;33.10;28.70
6948;DHT22;3513;47.664;9.162;2023-07-22T16:04:53;33.80;29.00
6948;DHT22;3513;47.664;9.162;2023-07-22T16:07:18;34.50;29.10
6948;DHT22;3513;47.664;9.162;2023-07-22T16:09:44;35.00;27.70